Time;durP1;ratioP1;P1;durP2;ratioP2;P2;SDS_P1;SDS_P2;PMS_P1;PMS_P2;Temp;Humidity;BMP_temperature;BMP_pressure;BME280_temperature;BME280_humidity;BME280_pressure;Samples;Min_cycle;Max_cycle;Signal;HPM_P1;HPM_P2
2021/12/03 00:01:06;;;;;;;;;;;1.90;99.90;;;;;;4997083;28;19940;-84
2021/12/03 00:03:34;;;;;;;;;;;1.90;99.90;;;;;;4993094;28;19968;-84
2021/12/03 00:06:02;;;;;;;;;;;1.90;99.90;;;;;;4998075;28;19948;-82
2021/12/03 00:08:29;;;;;;;;;;;1.90;99.90;;;;;;4992377;28;19945;-84
2021/12/03 00:10:58;;;;;;;;;;;1.90;99.90;;;;;;5025740;28;19910;-82
2021/12/03 00:13:30;;;;;;;;;;;1.90;99.90;;;;;;4997373;28;19922;-82
2021/12/03 00:15:57;;;;;;;;;;;1.90;99.90;;;;;;5028643;28;19997;-84
2021/12/03 00:18:25;;;;;;;;;;;1.90;99.90;;;;;;4991035;28;19922;-82
2021/12/03 00:20:51;;;;;;;;;;;1.90;99.90;;;;;;4995779;28;19977;-82
2021/12/03 00:23:20;;;;;;;;;;;1.90;99.90;;;;;;4996354;28;19966;-84
2021/12/03 00:25:47;;;;;;;;;;;1.90;99.90;;;;;;4995489;28;19916;-82
2021/12/03 00:28:15;;;;;;;;;;;1.90;99.90;;;;;;4992277;28;19934;-83
2021/12/03 00:30:42;;;;;;;;;;;1.90;99.90;;;;;;5026193;28;19934;-84
2021/12/03 00:33:09;;;;;;;;;;;1.80;99.90;;;;;;5004108;28;19910;-83
2021/12/03 00:35:36;;;;;;;;;;;1.80;99.90;;;;;;4999125;28;19941;-84
2021/12/03 00:38:04;;;;;;;;;;;1.80;99.90;;;;;;5003527;28;19966;-82
2021/12/03 00:40:35;;;;;;;;;;;1.80;99.90;;;;;;5008929;23;20253;-79
2021/12/03 00:43:03;;;;;;;;;;;1.80;99.90;;;;;;4993298;28;20339;-79
2021/12/03 00:45:31;;;;;;;;;;;1.80;99.90;;;;;;4975197;28;19969;-80
2021/12/03 00:47:58;;;;;;;;;;;1.80;99.90;;;;;;4993135;28;20025;-79
2021/12/03 00:50:27;;;;;;;;;;;1.80;99.90;;;;;;4986206;28;19925;-79
2021/12/03 00:52:55;;;;;;;;;;;1.80;99.90;;;;;;4974814;28;19929;-80
2021/12/03 00:55:23;;;;;;;;;;;1.80;99.90;;;;;;4975956;28;19925;-80
2021/12/03 00:57:51;;;;;;;;;;;1.70;99.90;;;;;;4973461;28;19933;-80
2021/12/03 01:00:22;;;;;;;;;;;1.70;99.90;;;;;;4988944;28;19979;-80
2021/12/03 01:02:50;;;;;;;;;;;1.70;99.90;;;;;;4986518;28;19934;-78
2021/12/03 01:05:17;;;;;;;;;;;1.70;99.90;;;;;;4988223;28;19930;-80
2021/12/03 01:07:44;;;;;;;;;;;1.70;99.90;;;;;;4993726;28;20380;-79
2021/12/03 01:10:11;;;;;;;;;;;1.70;99.90;;;;;;4993586;28;20113;-79
2021/12/03 01:12:38;;;;;;;;;;;1.70;99.90;;;;;;4987064;28;19934;-80
2021/12/03 01:15:10;;;;;;;;;;;1.70;99.90;;;;;;4976883;28;19926;-79
2021/12/03 01:17:37;;;;;;;;;;;1.60;99.90;;;;;;4990971;28;19932;-79
2021/12/03 01:20:06;;;;;;;;;;;;;;;;;;4992590;28;20025;-79
2021/12/03 01:22:33;;;;;;;;;;;1.60;99.90;;;;;;4970984;28;19934;-79
2021/12/03 01:25:00;;;;;;;;;;;1.60;99.90;;;;;;4993139;28;20323;-79
2021/12/03 01:27:27;;;;;;;;;;;1.60;99.90;;;;;;4974697;28;19929;-80
2021/12/03 01:29:55;;;;;;;;;;;1.60;99.90;;;;;;4972445;28;20352;-79
2021/12/03 01:32:23;;;;;;;;;;;1.60;99.90;;;;;;4972003;28;19925;-79
2021/12/03 01:34:50;;;;;;;;;;;1.60;99.90;;;;;;4990521;28;19929;-79
2021/12/03 01:37:17;;;;;;;;;;;1.60;99.90;;;;;;4971752;28;20304;-80
2021/12/03 01:39:44;;;;;;;;;;;1.60;99.90;;;;;;4968885;28;19930;-79
2021/12/03 01:42:11;;;;;;;;;;;1.50;99.90;;;;;;4974134;28;19941;-79
2021/12/03 01:44:38;;;;;;;;;;;1.50;99.90;;;;;;4970099;28;20016;-79
2021/12/03 01:47:05;;;;;;;;;;;1.50;99.90;;;;;;4988323;28;19989;-79
2021/12/03 01:49:34;;;;;;;;;;;1.50;99.90;;;;;;4994061;28;19973;-79
2021/12/03 01:52:01;;;;;;;;;;;1.50;99.90;;;;;;4971899;28;19930;-79
2021/12/03 01:54:28;;;;;;;;;;;1.50;99.90;;;;;;4972217;28;19927;-80
2021/12/03 01:56:55;;;;;;;;;;;1.50;99.90;;;;;;4992265;28;19993;-79
2021/12/03 01:59:22;;;;;;;;;;;1.50;99.90;;;;;;4969096;28;20095;-79
2021/12/03 02:01:49;;;;;;;;;;;1.50;99.90;;;;;;4988883;28;19926;-79
2021/12/03 02:04:16;;;;;;;;;;;1.50;99.90;;;;;;4974121;28;19925;-79
2021/12/03 02:06:44;;;;;;;;;;;1.50;99.90;;;;;;4972428;28;19933;-79
2021/12/03 02:09:11;;;;;;;;;;;1.50;99.90;;;;;;4974275;28;20426;-79
2021/12/03 02:11:39;;;;;;;;;;;1.50;99.90;;;;;;4994471;28;20025;-79
2021/12/03 02:14:06;;;;;;;;;;;1.50;99.90;;;;;;4972687;28;19926;-79
2021/12/03 02:16:33;;;;;;;;;;;1.50;99.90;;;;;;4976815;28;19932;-79
2021/12/03 02:19:00;;;;;;;;;;;1.50;99.90;;;;;;4981869;28;19936;-79
2021/12/03 02:21:29;;;;;;;;;;;1.50;99.90;;;;;;4981510;28;19926;-79
2021/12/03 02:23:56;;;;;;;;;;;1.50;99.90;;;;;;4972172;28;20414;-79
2021/12/03 02:26:23;;;;;;;;;;;1.50;99.90;;;;;;4971531;28;19929;-79
2021/12/03 02:28:52;;;;;;;;;;;1.50;99.90;;;;;;4989726;28;19930;-79
2021/12/03 02:31:21;;;;;;;;;;;1.50;99.90;;;;;;4984631;28;19926;-79
2021/12/03 02:33:48;;;;;;;;;;;1.50;99.90;;;;;;4971808;28;19936;-79
2021/12/03 02:36:16;;;;;;;;;;;1.50;99.90;;;;;;4987867;28;19929;-78
2021/12/03 02:38:45;;;;;;;;;;;1.50;99.90;;;;;;4971654;28;20363;-79
2021/12/03 02:41:12;;;;;;;;;;;1.50;99.90;;;;;;4972816;28;19976;-79
2021/12/03 02:43:39;;;;;;;;;;;1.50;99.90;;;;;;4989224;28;19948;-79
2021/12/03 02:46:06;;;;;;;;;;;1.50;99.90;;;;;;4973775;28;19932;-79
2021/12/03 02:48:35;;;;;;;;;;;1.40;99.90;;;;;;4968370;28;20408;-79
2021/12/03 02:51:03;;;;;;;;;;;1.40;99.90;;;;;;4969925;28;20392;-79
2021/12/03 02:53:30;;;;;;;;;;;1.40;99.90;;;;;;4982499;28;20383;-79
2021/12/03 02:55:59;;;;;;;;;;;1.40;99.90;;;;;;4972584;28;19933;-79
2021/12/03 02:58:26;;;;;;;;;;;1.50;99.90;;;;;;4974288;28;20422;-79
2021/12/03 03:00:53;;;;;;;;;;;1.40;99.90;;;;;;4986040;28;19939;-79
2021/12/03 03:03:20;;;;;;;;;;;1.50;99.90;;;;;;4998756;28;19988;-79
2021/12/03 03:05:52;;;;;;;;;;;1.40;99.90;;;;;;4967949;28;19988;-79
2021/12/03 03:08:19;;;;;;;;;;;1.40;99.90;;;;;;4984029;28;20278;-79
2021/12/03 03:10:46;;;;;;;;;;;1.40;99.90;;;;;;4981777;28;19926;-79
2021/12/03 03:13:15;;;;;;;;;;;1.40;99.90;;;;;;4970555;28;19941;-79
2021/12/03 03:15:42;;;;;;;;;;;1.40;99.90;;;;;;4973102;28;19936;-80
2021/12/03 03:18:10;;;;;;;;;;;1.40;99.90;;;;;;4969115;28;20407;-78
2021/12/03 03:20:38;;;;;;;;;;;1.40;99.90;;;;;;4970263;28;20040;-79
2021/12/03 03:23:05;;;;;;;;;;;1.50;99.90;;;;;;4989797;28;20387;-79
2021/12/03 03:25:32;;;;;;;;;;;1.40;99.90;;;;;;4967085;28;19926;-79
2021/12/03 03:27:59;;;;;;;;;;;1.50;99.90;;;;;;4986487;28;20303;-79
2021/12/03 03:30:28;;;;;;;;;;;1.40;99.90;;;;;;4988640;28;19930;-79
2021/12/03 03:32:55;;;;;;;;;;;1.40;99.90;;;;;;4992062;28;19925;-79
2021/12/03 03:35:22;;;;;;;;;;;1.40;99.90;;;;;;4983989;28;19932;-79
2021/12/03 03:37:49;;;;;;;;;;;1.50;99.90;;;;;;4969054;28;20207;-79
2021/12/03 03:40:16;;;;;;;;;;;1.40;99.90;;;;;;4986512;28;20372;-79
2021/12/03 03:42:44;;;;;;;;;;;1.50;99.90;;;;;;4989068;28;19938;-79
2021/12/03 03:45:13;;;;;;;;;;;1.50;99.90;;;;;;4968317;28;20036;-79
2021/12/03 03:47:44;;;;;;;;;;;1.50;99.90;;;;;;4988742;28;20395;-79
2021/12/03 03:50:12;;;;;;;;;;;1.50;99.90;;;;;;4971609;28;19929;-79
2021/12/03 03:52:41;;;;;;;;;;;1.50;99.90;;;;;;4987550;28;20012;-79
2021/12/03 03:55:09;;;;;;;;;;;1.50;99.90;;;;;;4971515;28;20410;-79
2021/12/03 03:57:36;;;;;;;;;;;1.50;99.90;;;;;;4986160;28;19980;-79
2021/12/03 04:00:04;;;;;;;;;;;1.50;99.90;;;;;;4972472;28;20312;-78
2021/12/03 04:02:38;;;;;;;;;;;1.50;99.90;;;;;;4985680;28;19925;-79
2021/12/03 04:05:07;;;;;;;;;;;1.40;99.90;;;;;;4970917;28;19972;-79
2021/12/03 04:07:34;;;;;;;;;;;1.50;99.90;;;;;;4979076;28;19930;-78
2021/12/03 04:10:01;;;;;;;;;;;1.50;99.90;;;;;;4977256;28;20056;-80
2021/12/03 04:12:28;;;;;;;;;;;1.50;99.90;;;;;;4975822;28;19932;-79
2021/12/03 04:14:55;;;;;;;;;;;1.50;99.90;;;;;;4971416;28;19926;-79
2021/12/03 04:17:22;;;;;;;;;;;1.50;99.90;;;;;;4975095;28;19926;-79
2021/12/03 04:19:49;;;;;;;;;;;1.50;99.90;;;;;;4987711;28;20012;-79
2021/12/03 04:22:23;;;;;;;;;;;1.50;99.90;;;;;;4975591;28;20013;-79
2021/12/03 04:24:50;;;;;;;;;;;1.50;99.90;;;;;;4997858;28;20384;-79
2021/12/03 04:27:17;;;;;;;;;;;1.50;99.90;;;;;;4975028;28;19936;-79
2021/12/03 04:29:44;;;;;;;;;;;1.50;99.90;;;;;;4989482;28;19925;-79
2021/12/03 04:32:12;;;;;;;;;;;1.50;99.90;;;;;;4992938;28;19940;-79
2021/12/03 04:34:39;;;;;;;;;;;1.50;99.90;;;;;;4972036;28;20459;-79
2021/12/03 04:37:06;;;;;;;;;;;1.50;99.90;;;;;;4977934;28;19932;-78
2021/12/03 04:39:35;;;;;;;;;;;1.40;99.90;;;;;;4971611;28;19926;-79
2021/12/03 04:42:01;;;;;;;;;;;1.50;99.90;;;;;;4989522;28;19972;-78
2021/12/03 04:44:28;;;;;;;;;;;1.50;99.90;;;;;;4973656;28;19925;-79
2021/12/03 04:46:55;;;;;;;;;;;1.50;99.90;;;;;;4990710;28;20016;-79
2021/12/03 04:49:22;;;;;;;;;;;1.50;99.90;;;;;;4975629;28;19965;-79
2021/12/03 04:51:49;;;;;;;;;;;1.50;99.90;;;;;;4990756;28;20384;-78
2021/12/03 04:54:16;;;;;;;;;;;1.50;99.90;;;;;;4975701;28;19926;-79
2021/12/03 04:56:44;;;;;;;;;;;1.50;99.90;;;;;;4990061;28;19964;-79
2021/12/03 04:59:11;;;;;;;;;;;1.40;99.90;;;;;;4971919;28;19930;-79
2021/12/03 05:01:39;;;;;;;;;;;1.40;99.90;;;;;;4985549;28;19926;-79
2021/12/03 05:04:06;;;;;;;;;;;1.50;99.90;;;;;;4991218;28;19974;-79
2021/12/03 05:06:52;;;;;;;;;;;1.40;99.90;;;;;;4967530;28;19926;-79
2021/12/03 05:09:19;;;;;;;;;;;1.40;99.90;;;;;;4986822;28;19926;-79
2021/12/03 05:11:48;;;;;;;;;;;1.40;99.90;;;;;;4975590;28;20343;-79
2021/12/03 05:14:14;;;;;;;;;;;1.40;99.90;;;;;;4983807;28;19930;-78
2021/12/03 05:16:41;;;;;;;;;;;1.40;99.90;;;;;;4990643;28;19926;-79
2021/12/03 05:19:08;;;;;;;;;;;1.40;99.90;;;;;;4985671;28;19933;-78
2021/12/03 05:21:35;;;;;;;;;;;1.40;99.90;;;;;;4972885;28;19926;-79
2021/12/03 05:24:03;;;;;;;;;;;1.40;99.90;;;;;;4986178;28;19930;-78
2021/12/03 05:26:30;;;;;;;;;;;1.40;99.90;;;;;;4969273;28;20025;-79
2021/12/03 05:28:59;;;;;;;;;;;1.40;99.90;;;;;;4988377;28;19937;-79
2021/12/03 05:31:25;;;;;;;;;;;1.40;99.90;;;;;;4981483;28;19925;-79
2021/12/03 05:33:52;;;;;;;;;;;1.40;99.90;;;;;;4990375;28;19944;-79
2021/12/03 05:36:19;;;;;;;;;;;1.40;99.90;;;;;;4981655;28;19933;-78
2021/12/03 05:38:46;;;;;;;;;;;1.40;99.90;;;;;;4969162;28;19934;-78
2021/12/03 05:41:13;;;;;;;;;;;1.40;99.90;;;;;;4979626;28;19933;-79
2021/12/03 05:43:40;;;;;;;;;;;1.30;99.90;;;;;;4971372;28;19934;-78
2021/12/03 05:46:08;;;;;;;;;;;1.40;99.90;;;;;;4986316;28;19988;-79
2021/12/03 05:48:35;;;;;;;;;;;1.30;99.90;;;;;;4972471;28;19926;-79
2021/12/03 05:51:02;;;;;;;;;;;1.30;99.90;;;;;;4980512;28;19929;-79
2021/12/03 05:53:29;;;;;;;;;;;1.30;99.90;;;;;;4990348;28;19964;-78
2021/12/03 05:55:56;;;;;;;;;;;1.30;99.90;;;;;;4982477;28;19957;-78
2021/12/03 05:58:23;;;;;;;;;;;1.30;99.90;;;;;;4987604;28;19938;-79
2021/12/03 06:00:50;;;;;;;;;;;1.40;99.90;;;;;;4975031;28;19937;-79
2021/12/03 06:03:19;;;;;;;;;;;1.30;99.90;;;;;;4967915;28;20009;-78
2021/12/03 06:05:46;;;;;;;;;;;1.30;99.90;;;;;;4969014;28;19967;-78
2021/12/03 06:08:13;;;;;;;;;;;1.30;99.90;;;;;;4983050;28;19939;-79
2021/12/03 06:10:40;;;;;;;;;;;1.40;99.90;;;;;;4987963;28;20439;-78
2021/12/03 06:13:07;;;;;;;;;;;1.30;99.90;;;;;;4971569;28;19929;-78
2021/12/03 06:15:34;;;;;;;;;;;1.30;99.90;;;;;;4986988;28;19929;-78
2021/12/03 06:18:00;;;;;;;;;;;1.30;99.90;;;;;;4970158;28;20344;-78
2021/12/03 06:20:29;;;;;;;;;;;1.30;99.90;;;;;;4973783;28;19926;-79
2021/12/03 06:22:56;;;;;;;;;;;1.30;99.90;;;;;;4971224;28;20012;-78
2021/12/03 06:25:23;;;;;;;;;;;1.30;99.90;;;;;;4990589;28;19934;-78
2021/12/03 06:27:50;;;;;;;;;;;1.30;99.90;;;;;;4965415;28;20420;-78
2021/12/03 06:30:18;;;;;;;;;;;1.20;99.90;;;;;;4973256;28;19925;-78
2021/12/03 06:32:45;;;;;;;;;;;1.20;99.90;;;;;;4991218;28;19925;-78
2021/12/03 06:35:13;;;;;;;;;;;1.20;99.90;;;;;;4990205;28;19926;-78
2021/12/03 06:37:41;;;;;;;;;;;1.20;99.90;;;;;;4984282;28;19940;-78
2021/12/03 06:40:10;;;;;;;;;;;1.20;99.90;;;;;;4975863;28;20372;-78
2021/12/03 06:42:37;;;;;;;;;;;1.20;99.90;;;;;;4993094;28;20415;-78
2021/12/03 06:45:06;;;;;;;;;;;1.20;99.90;;;;;;4987661;28;19925;-78
2021/12/03 06:47:33;;;;;;;;;;;1.20;99.90;;;;;;4988051;28;19930;-78
2021/12/03 06:50:02;;;;;;;;;;;1.20;99.90;;;;;;5000111;28;19929;-78
2021/12/03 06:52:29;;;;;;;;;;;1.20;99.90;;;;;;4968120;28;20514;-78
2021/12/03 06:55:05;;;;;;;;;;;1.20;99.90;;;;;;5530055;23;19910;-81
2021/12/03 06:57:33;;;;;;;;;;;1.20;99.90;;;;;;5344921;23;20001;-83
2021/12/03 07:05:31;;;;;;;;;;;1.20;99.90;;;;;;5387051;23;19914;-84
2021/12/03 07:07:59;;;;;;;;;;;1.20;99.90;;;;;;4978324;28;19918;-84
2021/12/03 07:10:29;;;;;;;;;;;1.20;99.90;;;;;;4991102;28;19922;-85
2021/12/03 14:05:16;;;;;;;;;;;2.00;99.90;;;;;;5060223;28;19924;-79
2021/12/03 14:38:52;;;;;;;;;;;2.00;99.90;;;;;;5062064;28;19932;-80
2021/12/03 14:41:55;;;;;;;;;;;2.00;99.90;;;;;;5062540;28;19924;-77
2021/12/03 14:44:27;;;;;;;;;;;2.00;99.90;;;;;;5063157;28;19925;-78
2021/12/03 14:47:11;;;;;;;;;;;2.00;99.90;;;;;;5060609;28;19925;-78
2021/12/03 14:50:05;;;;;;;;;;;2.00;99.90;;;;;;5058861;28;19967;-78
2021/12/03 14:52:39;;;;;;;;;;;2.00;99.90;;;;;;5049630;28;19925;-78
2021/12/03 14:55:09;;;;;;;;;;;2.00;99.90;;;;;;5062144;28;20378;-78
2021/12/03 14:57:42;;;;;;;;;;;2.00;99.90;;;;;;5062190;28;19924;-78
2021/12/03 15:00:28;;;;;;;;;;;2.00;99.90;;;;;;5060645;28;20348;-78
2021/12/03 15:06:11;;;;;;;;;;;2.00;99.90;;;;;;5059265;28;19925;-78
2021/12/03 15:08:50;;;;;;;;;;;2.00;99.90;;;;;;5057863;28;19925;-78
2021/12/03 15:11:48;;;;;;;;;;;2.00;99.90;;;;;;5060319;28;19947;-77
2021/12/03 15:20:22;;;;;;;;;;;2.00;99.90;;;;;;5001744;28;19929;-78
2021/12/03 15:25:55;;;;;;;;;;;2.00;99.90;;;;;;5048526;28;19921;-78
2021/12/03 15:31:22;;;;;;;;;;;2.00;99.90;;;;;;5044213;28;19928;-78
2021/12/03 15:33:57;;;;;;;;;;;2.00;99.90;;;;;;5046625;28;20028;-78
2021/12/03 15:36:32;;;;;;;;;;;2.00;99.90;;;;;;5062370;28;20492;-78
2021/12/03 15:39:37;;;;;;;;;;;2.00;99.90;;;;;;5037308;28;19925;-78
2021/12/03 16:04:27;;;;;;;;;;;1.90;99.90;;;;;;5046912;28;19928;-78
2021/12/03 16:07:12;;;;;;;;;;;1.90;99.90;;;;;;5044721;28;19929;-78
2021/12/03 16:12:33;;;;;;;;;;;1.90;99.90;;;;;;5040028;28;19921;-78
2021/12/03 16:20:46;;;;;;;;;;;1.90;99.90;;;;;;5042705;28;19924;-78
2021/12/03 16:23:28;;;;;;;;;;;1.90;99.90;;;;;;5046781;28;19928;-78
2021/12/03 16:51:28;;;;;;;;;;;1.80;99.90;;;;;;5061377;28;20006;-78
2021/12/03 16:54:05;;;;;;;;;;;1.80;99.90;;;;;;5042971;28;20535;-77
2021/12/03 16:56:32;;;;;;;;;;;1.80;99.90;;;;;;5046995;28;19929;-78
2021/12/03 16:59:02;;;;;;;;;;;1.90;99.90;;;;;;5046346;28;19932;-78
2021/12/03 17:01:32;;;;;;;;;;;2.10;99.90;;;;;;5035975;28;19931;-78
2021/12/03 17:04:08;;;;;;;;;;;2.20;99.90;;;;;;5040988;28;19932;-78
2021/12/03 17:09:31;;;;;;;;;;;1.90;99.90;;;;;;5040747;28;19996;-78
2021/12/03 17:14:57;;;;;;;;;;;1.80;99.90;;;;;;5038407;28;20062;-78
2021/12/03 17:51:36;;;;;;;;;;;1.90;99.90;;;;;;5031160;28;20470;-77
2021/12/03 17:54:25;;;;;;;;;;;1.80;99.90;;;;;;5082899;22;19926;-77
2021/12/03 17:57:03;;;;;;;;;;;1.80;99.90;;;;;;5038557;28;19952;-78
2021/12/03 17:59:36;;;;;;;;;;;1.80;99.90;;;;;;5023212;28;19925;-77
2021/12/03 18:02:14;;;;;;;;;;;1.80;99.90;;;;;;5013221;28;19930;-77
2021/12/03 18:04:54;;;;;;;;;;;1.70;99.90;;;;;;5026654;28;20458;-77
2021/12/03 18:07:42;;;;;;;;;;;1.70;99.90;;;;;;5039484;28;19933;-77
2021/12/03 18:10:40;;;;;;;;;;;1.70;99.90;;;;;;5024345;28;19933;-77
2021/12/03 18:43:58;;;;;;;;;;;1.90;99.90;;;;;;5022892;28;20248;-78
2021/12/03 18:51:56;;;;;;;;;;;1.70;99.90;;;;;;5021334;28;20068;-76
2021/12/03 18:54:43;;;;;;;;;;;1.70;99.90;;;;;;5027201;28;20280;-77
2021/12/03 18:57:12;;;;;;;;;;;1.70;99.90;;;;;;5022704;28;20343;-78
2021/12/03 18:59:51;;;;;;;;;;;1.70;99.90;;;;;;5019449;28;20010;-78
2021/12/03 19:02:20;;;;;;;;;;;1.60;99.90;;;;;;5014909;28;20365;-77
2021/12/03 19:04:52;;;;;;;;;;;1.60;99.90;;;;;;5023493;28;19953;-77
2021/12/03 19:07:22;;;;;;;;;;;1.60;99.90;;;;;;5023503;28;19980;-77
2021/12/03 19:09:52;;;;;;;;;;;1.60;99.90;;;;;;5025831;28;19939;-77
2021/12/03 19:12:23;;;;;;;;;;;1.60;99.90;;;;;;5042535;28;20426;-77
2021/12/03 19:14:55;;;;;;;;;;;1.60;99.90;;;;;;5037476;28;19933;-77
2021/12/03 19:17:23;;;;;;;;;;;1.60;99.90;;;;;;5027259;28;19979;-78
2021/12/03 19:19:53;;;;;;;;;;;1.60;99.90;;;;;;5024299;28;19925;-76
2021/12/03 19:22:22;;;;;;;;;;;1.60;99.90;;;;;;5039707;28;19979;-76
2021/12/03 19:24:49;;;;;;;;;;;1.60;99.90;;;;;;5021345;28;19933;-76
2021/12/03 19:27:16;;;;;;;;;;;1.60;99.90;;;;;;5042957;28;20370;-77
2021/12/03 19:29:43;;;;;;;;;;;1.60;99.90;;;;;;5020597;28;20384;-77
2021/12/03 19:32:13;;;;;;;;;;;1.60;99.90;;;;;;5019893;28;19983;-76
2021/12/03 19:34:40;;;;;;;;;;;1.50;99.90;;;;;;5022747;28;19933;-76
2021/12/03 19:37:07;;;;;;;;;;;1.50;99.90;;;;;;5033600;28;19925;-77
2021/12/03 19:39:37;;;;;;;;;;;1.50;99.90;;;;;;5025297;28;19925;-76
2021/12/03 19:42:08;;;;;;;;;;;1.50;99.90;;;;;;5016504;28;19933;-78
2021/12/03 19:44:42;;;;;;;;;;;1.50;99.90;;;;;;5029059;28;19925;-77
2021/12/03 19:47:10;;;;;;;;;;;1.50;99.90;;;;;;5015773;28;19925;-77
2021/12/03 19:49:47;;;;;;;;;;;1.50;99.90;;;;;;5021945;28;20479;-77
2021/12/03 19:52:23;;;;;;;;;;;1.50;99.90;;;;;;5013509;28;19939;-77
2021/12/03 19:54:53;;;;;;;;;;;1.50;99.90;;;;;;5018567;28;19988;-77
2021/12/03 19:57:21;;;;;;;;;;;1.50;99.90;;;;;;5022691;28;19951;-77
2021/12/03 19:59:48;;;;;;;;;;;1.50;99.90;;;;;;5020785;28;19931;-77
2021/12/03 20:02:15;;;;;;;;;;;1.50;99.90;;;;;;5036797;28;19940;-77
2021/12/03 20:04:47;;;;;;;;;;;1.50;99.90;;;;;;5022233;28;20390;-77
2021/12/03 20:07:18;;;;;;;;;;;1.50;99.90;;;;;;5023025;28;20011;-77
2021/12/03 20:09:47;;;;;;;;;;;1.50;99.90;;;;;;5022703;28;20398;-77
2021/12/03 20:12:19;;;;;;;;;;;1.40;99.90;;;;;;5019661;28;19933;-77
2021/12/03 20:14:49;;;;;;;;;;;1.50;99.90;;;;;;5024067;28;19935;-76
2021/12/03 20:17:21;;;;;;;;;;;1.50;99.90;;;;;;5032555;28;19932;-77
2021/12/03 20:19:51;;;;;;;;;;;1.40;99.90;;;;;;5020148;28;20028;-77
2021/12/03 20:22:21;;;;;;;;;;;1.50;99.90;;;;;;5037229;28;19929;-77
2021/12/03 20:25:02;;;;;;;;;;;1.40;99.90;;;;;;5016093;28;19925;-78
2021/12/03 20:27:39;;;;;;;;;;;1.40;99.90;;;;;;5022845;28;19933;-77
2021/12/03 20:30:15;;;;;;;;;;;1.40;99.90;;;;;;5017952;28;19941;-78
2021/12/03 20:32:49;;;;;;;;;;;1.40;99.90;;;;;;5038445;28;19972;-76
2021/12/03 20:35:49;;;;;;;;;;;1.40;99.90;;;;;;5022421;28;19932;-78
2021/12/03 20:38:18;;;;;;;;;;;1.40;99.90;;;;;;5020260;28;19944;-77
2021/12/03 20:40:52;;;;;;;;;;;1.40;99.90;;;;;;5019235;28;19929;-77
2021/12/03 20:43:28;;;;;;;;;;;1.40;99.90;;;;;;5023443;28;19925;-78
2021/12/03 20:46:06;;;;;;;;;;;1.40;99.90;;;;;;5021583;28;19925;-77
2021/12/03 20:48:46;;;;;;;;;;;1.40;99.90;;;;;;5016738;28;19925;-77
2021/12/03 20:54:16;;;;;;;;;;;1.40;99.90;;;;;;5012555;28;19925;-77
2021/12/03 20:59:42;;;;;;;;;;;1.40;99.90;;;;;;5033789;28;19922;-77
2021/12/03 21:08:04;;;;;;;;;;;1.40;99.90;;;;;;4948885;28;20335;-77
2021/12/03 21:10:41;;;;;;;;;;;1.40;99.90;;;;;;5026207;28;20032;-76
2021/12/03 21:13:11;;;;;;;;;;;1.40;99.90;;;;;;5016971;28;19997;-77
2021/12/03 21:15:56;;;;;;;;;;;1.40;99.90;;;;;;5034754;28;19924;-77
2021/12/03 21:18:30;;;;;;;;;;;1.40;99.90;;;;;;5020456;28;19925;-78
2021/12/03 21:21:03;;;;;;;;;;;1.30;99.90;;;;;;5019016;28;19928;-78
2021/12/03 21:23:34;;;;;;;;;;;1.30;99.90;;;;;;5021525;28;20472;-77
2021/12/03 21:26:01;;;;;;;;;;;1.30;99.90;;;;;;5023099;28;19936;-77
2021/12/03 21:28:40;;;;;;;;;;;1.40;99.90;;;;;;5023890;28;19929;-77
2021/12/03 21:31:11;;;;;;;;;;;1.30;99.90;;;;;;5016574;28;19987;-77
2021/12/03 21:39:12;;;;;;;;;;;1.30;99.90;;;;;;5017373;28;19921;-77
2021/12/03 21:41:40;;;;;;;;;;;1.30;99.90;;;;;;5014596;28;19925;-77
2021/12/03 21:44:08;;;;;;;;;;;1.30;99.90;;;;;;5017671;28;19951;-77
2021/12/03 21:46:36;;;;;;;;;;;1.30;99.90;;;;;;5018121;28;20371;-77
2021/12/03 21:49:04;;;;;;;;;;;1.30;99.90;;;;;;5020293;28;19968;-78
2021/12/03 21:51:32;;;;;;;;;;;1.30;99.90;;;;;;5031688;28;20422;-78
2021/12/03 21:54:00;;;;;;;;;;;1.30;99.90;;;;;;5008763;28;19925;-78
2021/12/03 21:56:29;;;;;;;;;;;1.30;99.90;;;;;;5023254;28;19932;-78
2021/12/03 21:58:56;;;;;;;;;;;1.30;99.90;;;;;;5024609;28;19976;-78
2021/12/03 22:01:23;;;;;;;;;;;1.30;99.90;;;;;;5017045;28;19930;-78
2021/12/03 22:03:50;;;;;;;;;;;1.30;99.90;;;;;;5027769;28;20434;-77
2021/12/03 22:06:19;;;;;;;;;;;1.30;99.90;;;;;;5044601;28;19979;-77
2021/12/03 22:08:46;;;;;;;;;;;1.30;99.90;;;;;;5023810;28;20287;-77
2021/12/03 22:11:13;;;;;;;;;;;1.30;99.90;;;;;;5023049;28;19932;-78
2021/12/03 22:13:41;;;;;;;;;;;1.30;99.90;;;;;;5027410;28;20387;-77
2021/12/03 22:16:08;;;;;;;;;;;1.30;99.90;;;;;;5021369;28;19933;-78
2021/12/03 22:18:35;;;;;;;;;;;1.30;99.90;;;;;;5025921;28;20395;-78
2021/12/03 22:21:05;;;;;;;;;;;1.30;99.90;;;;;;5025287;28;20302;-77
2021/12/03 22:23:34;;;;;;;;;;;1.30;99.90;;;;;;5030072;28;19925;-77
2021/12/03 22:26:01;;;;;;;;;;;1.30;99.90;;;;;;5024446;28;19933;-78
2021/12/03 22:28:28;;;;;;;;;;;1.30;99.90;;;;;;5027586;28;20273;-78
2021/12/03 22:30:56;;;;;;;;;;;1.30;99.90;;;;;;5037871;28;19925;-77
2021/12/03 22:33:25;;;;;;;;;;;1.30;99.90;;;;;;5024416;28;20091;-77
2021/12/03 22:35:51;;;;;;;;;;;1.30;99.90;;;;;;5026021;28;19933;-77
2021/12/03 22:38:18;;;;;;;;;;;1.40;99.90;;;;;;5029635;28;19932;-78
2021/12/03 22:40:47;;;;;;;;;;;1.30;99.90;;;;;;5039132;28;19925;-77
2021/12/03 22:43:14;;;;;;;;;;;1.30;99.90;;;;;;5032620;28;19925;-77
2021/12/03 22:45:47;;;;;;;;;;;1.30;99.90;;;;;;5046056;28;19975;-77
2021/12/03 22:48:34;;;;;;;;;;;1.40;99.90;;;;;;5023509;28;19929;-77
2021/12/03 22:51:05;;;;;;;;;;;1.30;99.90;;;;;;5027020;28;19972;-77
2021/12/03 22:53:33;;;;;;;;;;;1.30;99.90;;;;;;5025431;28;19935;-77
2021/12/03 22:55:59;;;;;;;;;;;1.30;99.90;;;;;;5025229;28;20307;-77
2021/12/03 22:58:26;;;;;;;;;;;1.30;99.90;;;;;;5038714;28;19929;-77
2021/12/03 23:00:55;;;;;;;;;;;1.40;99.90;;;;;;5024774;28;19929;-77
2021/12/03 23:03:25;;;;;;;;;;;1.40;99.90;;;;;;5024262;28;20469;-77
2021/12/03 23:05:52;;;;;;;;;;;1.40;99.90;;;;;;5019532;28;19925;-77
2021/12/03 23:08:19;;;;;;;;;;;1.40;99.90;;;;;;5042560;28;19937;-77
2021/12/03 23:10:46;;;;;;;;;;;1.40;99.90;;;;;;5026904;28;19925;-77
2021/12/03 23:13:14;;;;;;;;;;;1.40;99.90;;;;;;5028827;28;20427;-77
2021/12/03 23:15:41;;;;;;;;;;;1.40;99.90;;;;;;5042966;28;20303;-77
2021/12/03 23:18:10;;;;;;;;;;;1.40;99.90;;;;;;5027825;28;19929;-77
2021/12/03 23:20:39;;;;;;;;;;;1.40;99.90;;;;;;5034197;28;19933;-77
2021/12/03 23:23:07;;;;;;;;;;;1.30;99.90;;;;;;5029384;28;20358;-77
2021/12/03 23:25:34;;;;;;;;;;;1.40;99.90;;;;;;5039468;28;20012;-77
2021/12/03 23:28:02;;;;;;;;;;;1.40;99.90;;;;;;5031252;28;19979;-77
2021/12/03 23:30:29;;;;;;;;;;;1.40;99.90;;;;;;5028051;28;19925;-77
2021/12/03 23:32:56;;;;;;;;;;;1.40;99.90;;;;;;5020558;28;19951;-77
2021/12/03 23:35:26;;;;;;;;;;;1.40;99.90;;;;;;5026459;28;19925;-78
2021/12/03 23:37:54;;;;;;;;;;;1.40;99.90;;;;;;5026291;28;20402;-77
2021/12/03 23:40:21;;;;;;;;;;;1.40;99.90;;;;;;5022982;28;20370;-77
2021/12/03 23:42:48;;;;;;;;;;;1.40;99.90;;;;;;5026189;28;19925;-77
2021/12/03 23:45:15;;;;;;;;;;;1.40;99.90;;;;;;5041539;28;19925;-77
2021/12/03 23:47:42;;;;;;;;;;;1.40;99.90;;;;;;5024947;28;19944;-77
2021/12/03 23:50:09;;;;;;;;;;;1.40;99.90;;;;;;5023251;28;20342;-77
2021/12/03 23:52:36;;;;;;;;;;;1.40;99.90;;;;;;5043420;28;19931;-77
2021/12/03 23:55:06;;;;;;;;;;;1.40;99.90;;;;;;5027120;28;19925;-77
2021/12/03 23:57:32;;;;;;;;;;;1.40;99.90;;;;;;5029826;28;19979;-77
2021/12/03 23:59:59;;;;;;;;;;;1.40;99.90;;;;;;5022942;28;20319;-77
